Time;durP1;ratioP1;P1;durP2;ratioP2;P2;SDS_P1;SDS_P2;PMS_P1;PMS_P2;Temp;Humidity;BMP_temperature;BMP_pressure;BME280_temperature;BME280_humidity;BME280_pressure;Samples;Min_cycle;Max_cycle;Signal;HPM_P1;HPM_P2
2023/07/28 00:02:11;;;;;;;2.30;1.50;;;20.20;99.90;;;;;;4999186;28;20051;-13
2023/07/28 00:04:37;;;;;;;2.10;1.60;;;20.30;99.90;;;;;;5020345;28;20544;-13
2023/07/28 00:07:04;;;;;;;2.78;1.40;;;20.30;99.90;;;;;;5011497;28;20405;-13
2023/07/28 00:09:30;;;;;;;2.20;1.70;;;20.30;99.90;;;;;;5010435;28;20037;-13
2023/07/28 00:11:57;;;;;;;2.78;1.70;;;20.30;99.90;;;;;;5007982;28;20102;-13
2023/07/28 00:14:24;;;;;;;2.00;1.50;;;20.30;99.90;;;;;;5010553;28;20263;-14
2023/07/28 00:16:55;;;;;;;2.93;1.33;;;20.30;99.90;;;;;;5001253;28;20013;-13
2023/07/28 00:19:21;;;;;;;2.75;1.35;;;20.30;99.90;;;;;;5020004;28;20075;-13
2023/07/28 00:21:50;;;;;;;2.35;1.40;;;20.30;99.90;;;;;;5012070;28;20500;-13
2023/07/28 00:24:17;;;;;;;2.60;1.67;;;20.30;99.90;;;;;;5013078;28;20614;-13
2023/07/28 00:26:44;;;;;;;3.00;1.58;;;20.30;99.90;;;;;;5013452;28;20537;-13
2023/07/28 00:29:09;;;;;;;2.10;1.50;;;20.30;99.90;;;;;;5014411;28;20025;-13
2023/07/28 00:31:35;;;;;;;2.30;1.60;;;20.40;99.90;;;;;;4996532;28;20505;-13
2023/07/28 00:34:02;;;;;;;2.90;1.57;;;20.40;99.90;;;;;;5023204;28;20025;-13
2023/07/28 00:36:28;;;;;;;2.80;1.77;;;20.40;99.90;;;;;;5018129;28;20029;-13
2023/07/28 00:38:54;;;;;;;3.53;1.58;;;20.40;99.90;;;;;;5013476;28;20032;-13
2023/07/28 00:41:20;;;;;;;3.20;1.80;;;20.40;99.90;;;;;;5014596;28;20193;-13
2023/07/28 00:43:45;;;;;;;2.38;1.60;;;20.30;99.90;;;;;;5014371;28;20090;-13
2023/07/28 00:46:12;;;;;;;2.70;1.70;;;20.40;99.90;;;;;;5016502;28;20033;-12
2023/07/28 00:48:40;;;;;;;2.38;1.65;;;20.30;99.90;;;;;;5004995;28;20025;-13
2023/07/28 00:51:07;;;;;;;2.85;1.70;;;20.30;99.90;;;;;;5021323;28;20032;-13
2023/07/28 00:53:36;;;;;;;2.38;1.67;;;20.30;99.90;;;;;;5016814;28;20235;-13
2023/07/28 00:56:03;;;;;;;2.67;1.80;;;20.30;99.90;;;;;;5016087;28;20105;-13
2023/07/28 00:58:30;;;;;;;3.83;1.60;;;20.30;99.90;;;;;;5011034;28;20466;-13
2023/07/28 01:00:55;;;;;;;2.70;1.65;;;20.20;99.90;;;;;;5025043;28;20025;-13
2023/07/28 01:03:22;;;;;;;2.60;1.65;;;20.30;99.90;;;;;;5047315;22;20062;-81
2023/07/28 01:06:15;;;;;;;3.25;1.80;;;20.30;99.90;;;;;;5062928;28;20031;-81
2023/07/28 01:09:05;;;;;;;3.27;1.80;;;20.30;99.90;;;;;;5041196;28;20033;-80
2023/07/28 01:11:31;;;;;;;2.90;1.70;;;20.30;99.90;;;;;;5031430;28;20519;-81
2023/07/28 01:13:57;;;;;;;2.80;1.80;;;20.30;99.90;;;;;;5029929;28;20021;-83
2023/07/28 01:16:23;;;;;;;3.03;1.67;;;20.20;99.90;;;;;;5048670;28;20021;-83
2023/07/28 01:18:49;;;;;;;2.17;1.50;;;20.20;99.90;;;;;;5045694;28;20029;-85
2023/07/28 01:21:26;;;;;;;2.50;1.65;;;20.20;99.90;;;;;;5044875;28;20021;-83
2023/07/28 01:24:16;;;;;;;4.60;1.80;;;20.20;99.90;;;;;;5039697;28;20036;-83
2023/07/28 01:26:43;;;;;;;2.40;1.63;;;20.20;99.90;;;;;;5060882;28;20039;-84
2023/07/28 01:29:10;;;;;;;2.10;1.50;;;20.20;99.90;;;;;;5044294;28;20025;-82
2023/07/28 01:31:36;;;;;;;2.70;1.60;;;20.20;99.90;;;;;;5032277;28;20037;-82
2023/07/28 01:34:02;;;;;;;3.08;1.58;;;20.20;99.90;;;;;;5045577;28;20037;-82
2023/07/28 01:36:28;;;;;;;2.63;1.50;;;20.20;99.90;;;;;;5041511;28;20107;-83
2023/07/28 01:38:54;;;;;;;2.30;1.60;;;20.20;99.90;;;;;;5024669;28;20499;-83
2023/07/28 01:41:19;;;;;;;3.17;1.48;;;20.20;99.90;;;;;;5044435;28;20558;-83
2023/07/28 01:43:45;;;;;;;2.23;1.40;;;20.20;99.90;;;;;;5048580;28;20039;-84
2023/07/28 01:46:11;;;;;;;2.60;1.70;;;20.20;99.90;;;;;;5031887;28;20025;-84
2023/07/28 01:48:36;;;;;;;2.35;1.45;;;20.20;99.90;;;;;;5046436;28;20087;-84
2023/07/28 01:51:02;;;;;;;2.00;1.30;;;20.20;99.90;;;;;;5050464;28;20024;-84
2023/07/28 01:53:28;;;;;;;2.55;1.40;;;20.20;99.90;;;;;;5029833;28;20025;-84
2023/07/28 01:55:53;;;;;;;1.87;1.30;;;20.20;99.90;;;;;;5049223;28;20504;-83
2023/07/28 01:58:19;;;;;;;2.05;1.40;;;20.20;99.90;;;;;;5052205;28;20406;-85
2023/07/28 02:00:46;;;;;;;1.97;1.43;;;20.20;99.90;;;;;;5049580;28;20043;-81
2023/07/28 02:03:12;;;;;;;2.17;1.30;;;20.20;99.90;;;;;;5044818;28;20514;-83
2023/07/28 02:05:38;;;;;;;2.45;1.20;;;20.20;99.90;;;;;;5031946;28;20071;-82
2023/07/28 02:08:04;;;;;;;1.92;1.20;;;20.20;99.90;;;;;;5033464;28;20515;-84
2023/07/28 02:10:30;;;;;;;1.87;1.27;;;20.20;99.90;;;;;;5034747;28;20029;-81
2023/07/28 02:12:56;;;;;;;2.15;1.40;;;20.20;99.90;;;;;;5050890;28;20439;-82
2023/07/28 02:15:21;;;;;;;1.92;1.30;;;20.20;99.90;;;;;;5032892;28;20048;-82
2023/07/28 02:17:47;;;;;;;1.83;1.30;;;20.20;99.90;;;;;;5046687;28;20091;-83
2023/07/28 02:20:15;;;;;;;2.30;1.40;;;20.30;99.90;;;;;;5049577;28;20361;-84
2023/07/28 02:22:44;;;;;;;2.10;1.30;;;20.20;99.90;;;;;;5048950;28;20442;-85
2023/07/28 02:25:10;;;;;;;2.22;1.50;;;20.20;99.90;;;;;;5050136;28;20037;-81
2023/07/28 02:27:37;;;;;;;2.10;1.40;;;20.30;99.90;;;;;;5050115;28;20064;-82
2023/07/28 02:30:04;;;;;;;2.47;1.30;;;20.30;99.90;;;;;;5029066;28;20035;-82
2023/07/28 02:32:33;;;;;;;2.00;1.40;;;20.20;99.90;;;;;;5027181;28;20139;-82
2023/07/28 02:34:59;;;;;;;2.47;1.47;;;20.30;99.90;;;;;;5044815;28;20521;-84
2023/07/28 02:37:25;;;;;;;2.40;1.30;;;20.30;99.90;;;;;;5046794;28;20078;-82
2023/07/28 02:39:51;;;;;;;1.92;1.30;;;20.30;99.90;;;;;;5040739;28;20075;-82
2023/07/28 02:42:17;;;;;;;2.40;1.40;;;20.30;99.90;;;;;;5040741;28;20457;-82
2023/07/28 02:44:43;;;;;;;2.50;1.60;;;20.30;99.90;;;;;;5029378;28;20294;-84
2023/07/28 02:47:08;;;;;;;2.00;1.40;;;20.30;99.90;;;;;;5028042;28;20253;-83
2023/07/28 02:49:34;;;;;;;2.80;1.40;;;20.30;99.90;;;;;;5045189;28;20083;-81
2023/07/28 02:52:00;;;;;;;1.60;1.30;;;20.40;99.90;;;;;;5042582;28;20057;-83
2023/07/28 02:54:26;;;;;;;1.48;1.30;;;20.40;99.90;;;;;;5050699;28;20028;-81
2023/07/28 02:56:52;;;;;;;2.47;1.30;;;20.40;99.90;;;;;;5046171;28;20025;-83
2023/07/28 02:59:18;;;;;;;1.67;1.05;;;20.40;99.90;;;;;;5037584;28;20475;-83
2023/07/28 03:01:44;;;;;;;1.83;1.20;;;20.40;99.90;;;;;;5041090;28;20522;-82
2023/07/28 03:04:09;;;;;;;2.22;1.20;;;20.30;99.90;;;;;;5028475;28;20056;-83
2023/07/28 03:06:35;;;;;;;1.60;1.10;;;20.30;99.90;;;;;;5038843;28;20090;-83
2023/07/28 03:09:01;;;;;;;1.75;1.20;;;20.40;99.90;;;;;;5041532;28;20033;-83
2023/07/28 03:11:26;;;;;;;1.13;0.93;;;20.40;99.90;;;;;;5028852;28;20029;-89
2023/07/28 03:13:52;;;;;;;2.15;1.15;;;20.40;99.90;;;;;;5046250;28;20372;-87
2023/07/28 03:16:18;;;;;;;2.70;1.20;;;20.40;99.90;;;;;;5043219;28;20029;-91
2023/07/28 03:18:44;;;;;;;1.77;1.17;;;20.40;99.90;;;;;;5031206;28;20037;-86
2023/07/28 03:21:10;;;;;;;1.70;1.20;;;20.40;99.90;;;;;;5044044;28;20388;-88
2023/07/28 03:23:36;;;;;;;2.00;1.25;;;20.40;99.90;;;;;;5042103;28;20033;-85
2023/07/28 03:26:01;;;;;;;1.33;1.00;;;20.40;99.90;;;;;;5044202;28;20029;-84
2023/07/28 03:28:27;;;;;;;1.27;1.17;;;20.40;99.90;;;;;;5036822;28;20035;-85
2023/07/28 03:30:53;;;;;;;1.58;1.08;;;20.40;99.90;;;;;;5040519;28;20403;-83
2023/07/28 03:33:18;;;;;;;1.70;1.00;;;20.40;99.90;;;;;;5035928;28;20413;-82
2023/07/28 03:35:44;;;;;;;1.70;1.00;;;20.40;99.90;;;;;;5047136;28;20241;-82
2023/07/28 03:38:10;;;;;;;1.97;1.10;;;20.40;99.90;;;;;;5044960;28;20032;-84
2023/07/28 03:40:36;;;;;;;1.58;1.02;;;20.40;99.90;;;;;;5045597;28;20048;-84
2023/07/28 03:43:02;;;;;;;2.20;1.10;;;20.40;99.90;;;;;;5042988;28;20029;-84
2023/07/28 03:45:28;;;;;;;1.85;1.08;;;20.40;99.90;;;;;;5029141;28;20025;-83
2023/07/28 03:47:54;;;;;;;1.60;0.90;;;20.40;99.90;;;;;;5043610;28;20516;-84
2023/07/28 03:50:20;;;;;;;1.52;1.00;;;20.40;99.90;;;;;;5028722;28;20082;-82
2023/07/28 03:52:46;;;;;;;1.98;1.10;;;20.40;99.90;;;;;;5025806;28;20025;-81
2023/07/28 03:55:12;;;;;;;1.20;1.00;;;20.40;99.90;;;;;;5034971;28;20035;-81
2023/07/28 03:57:37;;;;;;;1.67;1.00;;;20.40;99.90;;;;;;5029967;28;20052;-82
2023/07/28 04:00:04;;;;;;;2.17;1.00;;;20.40;99.90;;;;;;5044826;28;20033;-83
2023/07/28 04:02:29;;;;;;;1.45;0.90;;;20.40;99.90;;;;;;5044913;28;20049;-83
2023/07/28 04:04:56;;;;;;;1.10;0.87;;;20.40;99.90;;;;;;5043138;28;20167;-84
2023/07/28 04:07:22;;;;;;;2.00;1.00;;;20.50;99.90;;;;;;5040266;28;20376;-84
2023/07/28 04:09:47;;;;;;;1.85;1.10;;;20.40;99.90;;;;;;5042836;28;20491;-83
2023/07/28 04:12:13;;;;;;;2.07;1.10;;;20.40;99.90;;;;;;5023503;28;20033;-84
2023/07/28 04:14:40;;;;;;;1.50;1.10;;;20.50;99.90;;;;;;5045331;28;20300;-82
2023/07/28 04:17:06;;;;;;;2.08;1.00;;;20.50;99.90;;;;;;5038326;28;20026;-83
2023/07/28 04:19:33;;;;;;;1.42;1.10;;;20.40;99.90;;;;;;5024719;28;20044;-83
2023/07/28 04:22:00;;;;;;;2.72;1.30;;;20.40;99.90;;;;;;5028118;28;20451;-82
2023/07/28 04:24:26;;;;;;;1.20;1.10;;;20.40;99.90;;;;;;5027643;28;20077;-82
2023/07/28 04:26:52;;;;;;;1.48;1.13;;;20.50;99.90;;;;;;5026857;28;20033;-83
2023/07/28 04:29:18;;;;;;;2.17;1.27;;;20.50;99.90;;;;;;5039736;28;20385;-83
2023/07/28 04:31:44;;;;;;;2.20;1.20;;;20.50;99.90;;;;;;5042301;28;20446;-84
2023/07/28 04:34:09;;;;;;;2.15;1.25;;;20.50;99.90;;;;;;5026234;28;20472;-82
2023/07/28 04:36:35;;;;;;;2.17;1.30;;;20.50;99.90;;;;;;5039197;28;20078;-83
2023/07/28 04:39:01;;;;;;;4.30;1.50;;;20.50;99.90;;;;;;5038687;28;20801;-84
2023/07/28 04:41:27;;;;;;;3.35;1.60;;;20.50;99.90;;;;;;5044604;28;20037;-81
2023/07/28 04:43:53;;;;;;;2.70;1.40;;;20.40;99.90;;;;;;5057848;28;20026;-83
2023/07/28 04:46:19;;;;;;;3.10;1.83;;;20.50;99.90;;;;;;5042799;28;20430;-80
2023/07/28 04:48:45;;;;;;;2.83;1.60;;;20.50;99.90;;;;;;5042993;28;20409;-81
2023/07/28 04:51:11;;;;;;;2.60;1.80;;;20.50;99.90;;;;;;5024933;28;20095;-83
2023/07/28 04:53:36;;;;;;;2.77;1.60;;;20.50;99.90;;;;;;5027711;28;20500;-82
2023/07/28 04:56:03;;;;;;;3.60;2.13;;;20.50;99.90;;;;;;5037443;28;20044;-80
2023/07/28 04:58:29;;;;;;;3.58;2.13;;;20.50;99.90;;;;;;5038901;28;20086;-83
2023/07/28 05:00:55;;;;;;;3.45;2.08;;;20.50;99.90;;;;;;5025576;28;20377;-84
2023/07/28 05:03:21;;;;;;;3.87;2.13;;;20.50;99.90;;;;;;5026926;28;20048;-83
2023/07/28 05:05:46;;;;;;;5.78;1.80;;;20.50;99.90;;;;;;5043178;28;20028;-83
2023/07/28 05:08:15;;;;;;;4.03;2.20;;;20.50;99.90;;;;;;5060320;28;20029;-83
2023/07/28 05:10:42;;;;;;;4.60;2.28;;;20.50;99.90;;;;;;5037947;28;20759;-82
2023/07/28 05:13:08;;;;;;;4.53;2.17;;;20.50;99.90;;;;;;5037821;28;20029;-81
2023/07/28 05:15:34;;;;;;;4.75;2.03;;;20.60;99.90;;;;;;5038558;28;20285;-82
2023/07/28 05:18:00;;;;;;;4.80;2.17;;;20.50;99.90;;;;;;5043188;28;20425;-83
2023/07/28 05:20:26;;;;;;;3.27;1.90;;;20.60;99.90;;;;;;5023520;28;20045;-82
2023/07/28 05:22:52;;;;;;;3.25;1.80;;;20.60;99.90;;;;;;5042443;28;20691;-81
2023/07/28 05:25:18;;;;;;;3.40;1.77;;;20.60;99.90;;;;;;5026279;28;20099;-84
2023/07/28 05:27:44;;;;;;;3.93;2.13;;;20.60;99.90;;;;;;5024295;28;20029;-86
2023/07/28 05:30:10;;;;;;;3.10;1.80;;;20.60;99.90;;;;;;5031428;28;20021;-81
2023/07/28 05:32:35;;;;;;;3.83;1.73;;;20.70;99.90;;;;;;5048592;28;20518;-81
2023/07/28 05:35:01;;;;;;;3.88;1.70;;;20.70;99.90;;;;;;5046791;28;20189;-83
2023/07/28 05:37:27;;;;;;;2.47;1.55;;;20.70;99.90;;;;;;5030571;28;20024;-83
2023/07/28 05:39:53;;;;;;;2.80;1.60;;;20.70;99.90;;;;;;5027330;28;20052;-83
2023/07/28 05:42:18;;;;;;;3.83;1.70;;;20.80;99.90;;;;;;5041467;28;20083;-84
2023/07/28 05:44:44;;;;;;;2.83;1.53;;;20.80;99.90;;;;;;5028041;28;20060;-82
2023/07/28 05:47:10;;;;;;;3.22;1.50;;;20.80;99.90;;;;;;5047218;28;20032;-83
2023/07/28 05:49:36;;;;;;;3.60;1.70;;;20.80;99.90;;;;;;5028919;28;20028;-85
2023/07/28 05:52:01;;;;;;;2.72;1.45;;;20.80;99.90;;;;;;5044201;28;20067;-83
2023/07/28 05:54:27;;;;;;;3.07;1.43;;;20.90;99.90;;;;;;5047865;28;20028;-82
2023/07/28 05:56:53;;;;;;;2.65;1.48;;;20.90;99.90;;;;;;5049766;28;20535;-83
2023/07/28 05:59:19;;;;;;;2.60;1.40;;;20.90;99.90;;;;;;5047234;28;20033;-84
2023/07/28 06:01:45;;;;;;;2.90;1.50;;;20.90;99.90;;;;;;5035441;28;20087;-86
2023/07/28 06:04:11;;;;;;;3.08;1.40;;;21.00;99.90;;;;;;5033356;28;20508;-83
2023/07/28 06:06:36;;;;;;;2.60;1.30;;;21.00;99.90;;;;;;5026614;28;20146;-82
2023/07/28 06:09:02;;;;;;;1.97;1.33;;;21.00;99.90;;;;;;5029772;28;20025;-81
2023/07/28 06:11:28;;;;;;;2.05;1.30;;;21.10;99.90;;;;;;5045923;28;20020;-80
2023/07/28 06:13:54;;;;;;;2.33;1.30;;;21.10;99.90;;;;;;5044398;28;20468;-83
2023/07/28 06:16:19;;;;;;;2.10;1.30;;;21.10;99.90;;;;;;5029498;28;20026;-85
2023/07/28 06:18:45;;;;;;;1.70;1.20;;;21.20;99.90;;;;;;5031685;28;20500;-85
2023/07/28 06:21:11;;;;;;;1.70;1.20;;;21.30;99.90;;;;;;5048866;28;20025;-84
2023/07/28 06:23:36;;;;;;;1.17;1.02;;;21.30;99.90;;;;;;5031448;28;20040;-84
2023/07/28 06:26:02;;;;;;;1.50;1.20;;;21.30;99.90;;;;;;5031501;28;20115;-84
2023/07/28 06:28:28;;;;;;;1.20;1.10;;;21.40;99.90;;;;;;5046387;28;20499;-82
2023/07/28 06:30:58;;;;;;;1.25;0.90;;;21.40;99.90;;;;;;5044208;28;20396;-79
2023/07/28 06:33:25;;;;;;;0.77;0.70;;;21.40;99.90;;;;;;5059812;28;20025;-85
2023/07/28 06:35:52;;;;;;;2.97;0.90;;;21.50;99.90;;;;;;5072598;28;20028;-86
2023/07/28 06:38:18;;;;;;;0.93;0.70;;;21.50;99.90;;;;;;5069718;28;20035;-85
2023/07/28 06:40:44;;;;;;;1.52;0.80;;;21.50;99.90;;;;;;5054552;28;20070;-85
2023/07/28 06:43:10;;;;;;;0.82;0.63;;;21.60;99.90;;;;;;5076353;28;20070;-86
2023/07/28 06:45:36;;;;;;;0.60;0.60;;;21.60;99.90;;;;;;5074076;28;20044;-85
2023/07/28 06:48:03;;;;;;;1.75;0.70;;;21.60;99.90;;;;;;5066617;28;20025;-86
2023/07/28 06:50:28;;;;;;;0.90;0.60;;;21.70;99.90;;;;;;5057088;28;20024;-85
2023/07/28 06:52:54;;;;;;;0.60;0.60;;;21.80;99.90;;;;;;5055270;28;20033;-87
2023/07/28 06:55:21;;;;;;;0.60;0.60;;;21.80;99.90;;;;;;5070941;28;20013;-85
2023/07/28 06:57:47;;;;;;;0.90;0.80;;;22.00;99.90;;;;;;5052191;28;20025;-86
2023/07/28 07:00:14;;;;;;;0.80;0.70;;;22.00;99.90;;;;;;5072339;28;20025;-85
2023/07/28 07:02:40;;;;;;;0.90;0.70;;;22.00;99.90;;;;;;5068294;28;20225;-83
2023/07/28 07:05:06;;;;;;;0.95;0.70;;;22.10;99.90;;;;;;5074159;28;20033;-87
2023/07/28 07:07:32;;;;;;;0.80;0.70;;;22.10;99.90;;;;;;5055701;28;20029;-86
2023/07/28 07:09:59;;;;;;;0.85;0.80;;;22.10;99.90;;;;;;5063274;28;20063;-86
2023/07/28 07:12:25;;;;;;;0.80;0.80;;;22.20;99.90;;;;;;5069000;28;20128;-86
2023/07/28 07:14:51;;;;;;;0.60;0.60;;;22.20;99.90;;;;;;5052528;28;20018;-86
2023/07/28 07:17:17;;;;;;;0.60;0.60;;;22.20;99.90;;;;;;5051225;28;20025;-84
2023/07/28 07:19:43;;;;;;;0.70;0.60;;;22.30;99.90;;;;;;5072335;28;20085;-86
2023/07/28 07:22:09;;;;;;;0.55;0.55;;;22.40;99.90;;;;;;5052673;28;20041;-86
2023/07/28 07:24:35;;;;;;;0.63;0.60;;;22.40;99.90;;;;;;5068395;28;20081;-86
2023/07/28 07:27:00;;;;;;;0.50;0.50;;;22.40;99.90;;;;;;5067754;28;20017;-86
2023/07/28 07:29:26;;;;;;;0.63;0.60;;;22.50;99.90;;;;;;5074755;28;20064;-85
2023/07/28 07:31:55;;;;;;;0.50;0.50;;;22.50;99.90;;;;;;5032567;28;20108;-88
2023/07/28 07:34:22;;;;;;;0.70;0.70;;;22.60;99.90;;;;;;5034442;28;20033;-82
2023/07/28 07:36:48;;;;;;;0.70;0.70;;;22.60;99.90;;;;;;5050866;28;20098;-85
2023/07/28 07:39:13;;;;;;;0.70;0.67;;;22.70;99.90;;;;;;5034909;28;20021;-84
2023/07/28 07:41:39;;;;;;;0.70;0.63;;;22.70;99.90;;;;;;5048916;28;20027;-88
2023/07/28 07:44:05;;;;;;;0.60;0.60;;;22.70;99.90;;;;;;5031048;28;20032;-86
2023/07/28 07:46:31;;;;;;;0.80;0.80;;;22.80;99.90;;;;;;5028333;28;20330;-84
2023/07/28 07:48:57;;;;;;;0.70;0.70;;;22.80;99.90;;;;;;5043542;28;20032;-85
2023/07/28 07:51:23;;;;;;;1.30;0.70;;;22.90;99.90;;;;;;5033459;28;20025;-83
2023/07/28 07:53:49;;;;;;;0.80;0.70;;;22.90;99.90;;;;;;5029610;28;20029;-84
2023/07/28 07:56:14;;;;;;;0.85;0.70;;;23.00;99.90;;;;;;5046990;28;20025;-84
2023/07/28 07:58:40;;;;;;;0.70;0.67;;;23.20;99.90;;;;;;5031884;28;20681;-85
2023/07/28 08:01:06;;;;;;;0.50;0.50;;;23.30;99.90;;;;;;5046301;28;20028;-83
2023/07/28 08:03:32;;;;;;;0.60;0.60;;;23.50;99.90;;;;;;5046793;28;20500;-86
2023/07/28 08:05:57;;;;;;;1.00;0.60;;;23.70;99.90;;;;;;5046903;28;20021;-85
2023/07/28 08:08:27;;;;;;;0.50;0.50;;;23.90;99.90;;;;;;5046264;28;20029;-82
2023/07/28 08:10:52;;;;;;;0.50;0.50;;;24.00;99.90;;;;;;5064759;28;20408;-82
2023/07/28 08:13:18;;;;;;;0.70;0.50;;;24.00;99.90;;;;;;5038654;28;20059;-84
2023/07/28 08:15:45;;;;;;;0.50;0.50;;;24.00;99.90;;;;;;5028662;28;20037;-82
2023/07/28 08:18:12;;;;;;;0.50;0.50;;;24.10;99.90;;;;;;5027586;28;20021;-83
2023/07/28 08:20:38;;;;;;;0.70;0.57;;;24.10;99.90;;;;;;5027822;28;20135;-83
2023/07/28 08:23:03;;;;;;;0.60;0.50;;;24.00;99.90;;;;;;5030014;28;20148;-85
2023/07/28 08:25:29;;;;;;;0.60;0.60;;;24.00;99.90;;;;;;5042256;28;20036;-84
2023/07/28 08:27:55;;;;;;;0.60;0.60;;;24.00;99.90;;;;;;5044720;28;20041;-84
2023/07/28 08:30:20;;;;;;;0.60;0.60;;;24.00;99.90;;;;;;5045590;28;20029;-84
2023/07/28 08:32:46;;;;;;;0.60;0.60;;;24.00;99.90;;;;;;5045357;28;20034;-82
2023/07/28 08:35:12;;;;;;;0.65;0.65;;;24.00;99.90;;;;;;5039799;28;20047;-86
2023/07/28 08:37:38;;;;;;;0.70;0.70;;;24.00;99.90;;;;;;5040374;28;20021;-81
2023/07/28 08:40:05;;;;;;;0.60;0.60;;;24.00;99.90;;;;;;5027122;28;20383;-81
2023/07/28 08:42:36;;;;;;;0.70;0.70;;;24.10;99.90;;;;;;5026844;28;20029;-84
2023/07/28 08:45:04;;;;;;;1.17;0.70;;;24.20;99.90;;;;;;5039651;28;20029;-84
2023/07/28 08:47:31;;;;;;;1.13;0.60;;;24.30;99.90;;;;;;5045421;28;20040;-84
2023/07/28 08:49:57;;;;;;;0.70;0.70;;;24.40;99.90;;;;;;5038851;28;20041;-84
2023/07/28 08:52:25;;;;;;;0.88;0.60;;;24.40;99.90;;;;;;5046752;28;20037;-85
2023/07/28 08:54:51;;;;;;;0.75;0.60;;;24.50;99.90;;;;;;5038604;28;20060;-82
2023/07/28 08:57:19;;;;;;;0.70;0.70;;;24.60;99.90;;;;;;5041088;28;20029;-82
2023/07/28 08:59:47;;;;;;;0.90;0.90;;;24.70;99.90;;;;;;5042979;28;20031;-83
2023/07/28 09:02:18;;;;;;;0.80;0.80;;;24.70;99.90;;;;;;5040324;28;20048;-85
2023/07/28 09:04:44;;;;;;;1.25;0.70;;;24.70;99.90;;;;;;5033506;28;20088;-83
2023/07/28 09:07:10;;;;;;;0.70;0.70;;;24.70;99.90;;;;;;5047610;28;20419;-82
2023/07/28 09:09:36;;;;;;;0.70;0.70;;;24.70;99.90;;;;;;5043494;28;20023;-84
2023/07/28 09:12:06;;;;;;;0.70;0.70;;;24.80;99.90;;;;;;5031608;28;20025;-83
2023/07/28 09:14:36;;;;;;;0.75;0.73;;;24.80;99.90;;;;;;5033409;28;20439;-84
2023/07/28 09:17:12;;;;;;;1.13;0.95;;;24.90;99.90;;;;;;5039985;28;20025;-83
2023/07/28 09:19:54;;;;;;;0.77;0.77;;;25.00;99.90;;;;;;5035501;28;20388;-84
2023/07/28 09:22:22;;;;;;;0.75;0.75;;;25.00;99.90;;;;;;5051201;28;20462;-84
2023/07/28 09:24:49;;;;;;;0.87;0.70;;;25.00;99.90;;;;;;5051119;28;20547;-83
2023/07/28 09:27:23;;;;;;;0.63;0.60;;;25.00;99.90;;;;;;5042422;28;20032;-83
2023/07/28 09:29:54;;;;;;;0.80;0.80;;;25.00;99.90;;;;;;5047468;28;20028;-82
2023/07/28 09:32:29;;;;;;;0.70;0.70;;;24.90;99.90;;;;;;5028940;28;20463;-83
2023/07/28 09:35:15;;;;;;;0.68;0.68;;;24.90;99.90;;;;;;5030378;28;20021;-82
2023/07/28 09:37:47;;;;;;;0.63;0.63;;;24.90;99.90;;;;;;5034673;28;20025;-86
2023/07/28 09:40:14;;;;;;;0.85;0.60;;;24.90;99.90;;;;;;5033815;28;20025;-84
2023/07/28 09:42:41;;;;;;;1.02;0.73;;;24.80;99.90;;;;;;5047751;28;20628;-82
2023/07/28 09:45:09;;;;;;;1.02;0.70;;;24.90;99.90;;;;;;5062213;28;20110;-85
2023/07/28 09:47:36;;;;;;;0.70;0.60;;;24.90;99.90;;;;;;5042783;28;20046;-87
2023/07/28 09:50:08;;;;;;;1.00;0.70;;;24.90;99.90;;;;;;5031827;28;20161;-83
2023/07/28 09:52:40;;;;;;;0.60;0.60;;;24.90;99.90;;;;;;5047850;28;20385;-81
2023/07/28 09:55:08;;;;;;;0.60;0.60;;;24.90;99.90;;;;;;5064638;28;20028;-80
2023/07/28 09:57:51;;;;;;;0.50;0.50;;;25.00;99.90;;;;;;5043694;28;20140;-81
2023/07/28 10:00:18;;;;;;;0.40;0.40;;;25.00;99.90;;;;;;5047508;28;20025;-83
2023/07/28 10:02:45;;;;;;;0.50;0.50;;;25.10;99.90;;;;;;5045398;28;20061;-83
2023/07/28 10:05:11;;;;;;;0.45;0.45;;;25.10;99.90;;;;;;5046283;28;20569;-86
2023/07/28 10:07:39;;;;;;;0.88;0.60;;;25.10;99.90;;;;;;5030345;28;20032;-85
2023/07/28 10:10:10;;;;;;;0.60;0.60;;;25.10;99.90;;;;;;5048652;28;20029;-82
2023/07/28 10:12:47;;;;;;;0.60;0.60;;;25.10;99.90;;;;;;5042979;28;20021;-83
2023/07/28 10:15:15;;;;;;;0.60;0.60;;;25.20;99.90;;;;;;5031647;28;20025;-81
2023/07/28 10:17:48;;;;;;;0.70;0.70;;;25.20;99.90;;;;;;5039369;28;20024;-85
2023/07/28 10:20:35;;;;;;;0.93;0.50;;;25.30;99.90;;;;;;5024828;28;20017;-84
2023/07/28 10:23:15;;;;;;;0.60;0.60;;;25.40;99.90;;;;;;5040588;28;20052;-84
2023/07/28 10:25:43;;;;;;;0.90;0.50;;;25.30;99.90;;;;;;5036715;28;20022;-83
2023/07/28 10:28:38;;;;;;;0.50;0.50;;;25.20;99.90;;;;;;5032457;28;20495;-82
2023/07/28 10:31:06;;;;;;;0.55;0.55;;;25.10;99.90;;;;;;5037853;28;20024;-85
2023/07/28 10:33:34;;;;;;;0.43;0.40;;;25.00;99.90;;;;;;5041460;28;20022;-83
2023/07/28 10:36:14;;;;;;;0.60;0.60;;;25.00;99.90;;;;;;5044576;28;20064;-82
2023/07/28 10:38:40;;;;;;;0.47;0.47;;;24.90;99.90;;;;;;5037879;28;20036;-82
2023/07/28 10:41:17;;;;;;;0.60;0.40;;;24.90;99.90;;;;;;5045405;28;20109;-83
2023/07/28 10:43:44;;;;;;;0.47;0.40;;;24.80;99.90;;;;;;5039939;28;20056;-85
2023/07/28 10:46:13;;;;;;;0.60;0.60;;;24.90;99.90;;;;;;5026070;28;20252;-84
2023/07/28 10:48:47;;;;;;;1.13;0.63;;;24.90;99.90;;;;;;5041043;28;20047;-82
2023/07/28 10:51:25;;;;;;;0.60;0.60;;;24.90;99.90;;;;;;5037596;28;20037;-85
2023/07/28 10:54:02;;;;;;;0.70;0.60;;;24.90;99.90;;;;;;5041666;28;20500;-84
2023/07/28 10:56:28;;;;;;;0.60;0.60;;;24.90;99.90;;;;;;5030718;28;20017;-81
2023/07/28 10:58:58;;;;;;;0.60;0.60;;;25.00;99.90;;;;;;5044031;28;20033;-82
2023/07/28 11:01:35;;;;;;;0.70;0.70;;;25.10;99.90;;;;;;5045970;28;20068;-83
2023/07/28 11:04:12;;;;;;;0.90;0.57;;;25.20;99.90;;;;;;5027005;28;20060;-82
2023/07/28 11:06:40;;;;;;;0.80;0.60;;;25.30;99.90;;;;;;5036652;28;20120;-83
2023/07/28 11:09:08;;;;;;;0.70;0.52;;;25.40;99.90;;;;;;5042094;28;20029;-83
2023/07/28 11:11:35;;;;;;;0.65;0.65;;;25.40;99.90;;;;;;5044654;28;20044;-83
2023/07/28 11:14:03;;;;;;;1.10;0.70;;;25.40;99.90;;;;;;5046115;28;20079;-84
2023/07/28 11:16:29;;;;;;;1.27;0.70;;;25.30;99.90;;;;;;5044157;28;20064;-81
2023/07/28 11:19:02;;;;;;;0.65;0.65;;;25.30;99.90;;;;;;5042958;28;20020;-84
2023/07/28 11:21:28;;;;;;;0.82;0.73;;;25.30;99.90;;;;;;5046938;28;20029;-83
2023/07/28 11:23:54;;;;;;;0.60;0.60;;;25.30;99.90;;;;;;5043210;28;20021;-83
2023/07/28 11:26:22;;;;;;;0.70;0.70;;;25.50;99.90;;;;;;5026335;28;20017;-83
2023/07/28 11:28:48;;;;;;;1.15;0.82;;;25.70;99.90;;;;;;5029601;28;20092;-85
2023/07/28 11:31:14;;;;;;;0.80;0.80;;;26.00;99.90;;;;;;5042910;28;20033;-84
2023/07/28 11:33:40;;;;;;;0.82;0.77;;;26.30;99.90;;;;;;5046616;28;20037;-82
2023/07/28 11:36:06;;;;;;;0.73;0.70;;;26.40;99.90;;;;;;5027607;28;20374;-82
2023/07/28 11:38:35;;;;;;;1.00;0.85;;;26.50;99.90;;;;;;5037821;28;20264;-82
2023/07/28 11:41:02;;;;;;;1.08;0.70;;;26.60;99.90;;;;;;5028878;28;20036;-84
2023/07/28 11:43:28;;;;;;;1.20;0.73;;;26.60;99.90;;;;;;5040193;28;20022;-80
2023/07/28 11:45:54;;;;;;;1.00;0.60;;;26.60;99.90;;;;;;5043667;28;20067;-82
2023/07/28 11:48:20;;;;;;;0.70;0.60;;;26.70;99.90;;;;;;5026813;28;20421;-84
2023/07/28 11:50:46;;;;;;;1.08;0.70;;;26.60;99.90;;;;;;5037142;28;20025;-84
2023/07/28 11:53:16;;;;;;;0.73;0.65;;;26.80;99.90;;;;;;5037430;28;20056;-86
2023/07/28 11:55:42;;;;;;;1.10;0.60;;;26.90;99.90;;;;;;5026831;28;20056;-81
2023/07/28 11:58:08;;;;;;;0.70;0.70;;;27.10;99.90;;;;;;5028013;28;20052;-83
2023/07/28 12:00:42;;;;;;;1.00;0.80;;;27.20;99.90;;;;;;5027115;28;20017;-82
2023/07/28 12:03:10;;;;;;;1.50;0.63;;;27.40;99.90;;;;;;5023960;28;20501;-87
2023/07/28 12:05:41;;;;;;;0.95;0.70;;;27.40;99.90;;;;;;5026944;28;20119;-80
2023/07/28 12:08:08;;;;;;;0.65;0.60;;;27.50;99.90;;;;;;5044847;28;20472;-84
2023/07/28 12:10:34;;;;;;;1.00;0.90;;;27.60;99.90;;;;;;5044159;28;20028;-83
2023/07/28 12:13:05;;;;;;;0.90;0.80;;;27.60;99.90;;;;;;5026956;28;20045;-81
2023/07/28 12:15:32;;;;;;;0.70;0.70;;;27.60;99.90;;;;;;5028036;28;20544;-80
2023/07/28 12:18:12;;;;;;;0.70;0.70;;;27.50;99.90;;;;;;5042943;28;20073;-82
2023/07/28 12:20:49;;;;;;;1.00;0.90;;;27.50;99.90;;;;;;5037737;28;20049;-84
2023/07/28 12:23:20;;;;;;;0.82;0.82;;;27.50;99.90;;;;;;5040433;28;20026;-83
2023/07/28 12:25:47;;;;;;;0.80;0.80;;;27.50;99.90;;;;;;5044071;28;20124;-84
2023/07/28 12:28:13;;;;;;;0.70;0.68;;;27.60;99.90;;;;;;5045333;28;20522;-82
2023/07/28 12:30:38;;;;;;;1.73;0.85;;;27.70;99.90;;;;;;5026307;28;20041;-81
2023/07/28 12:33:05;;;;;;;0.80;0.80;;;27.80;99.90;;;;;;5042126;28;20603;-81
2023/07/28 12:35:34;;;;;;;0.80;0.80;;;28.00;99.90;;;;;;5028359;28;20110;-81
2023/07/28 12:38:01;;;;;;;0.80;0.80;;;28.20;99.90;;;;;;5045522;28;20079;-82
2023/07/28 12:40:29;;;;;;;1.23;1.02;;;28.50;99.90;;;;;;5047269;28;20040;-83
2023/07/28 12:42:56;;;;;;;1.50;1.02;;;28.80;99.90;;;;;;5051813;28;20425;-84
2023/07/28 12:45:22;;;;;;;1.20;1.00;;;29.10;99.90;;;;;;5050040;28;20610;-87
2023/07/28 12:47:47;;;;;;;1.40;1.30;;;29.40;99.90;;;;;;5046100;28;20032;-85
2023/07/28 12:50:13;;;;;;;1.20;1.10;;;29.60;99.90;;;;;;5019260;28;20041;-82